Humidity-temperature Sensor

Selected Measurement Type: Air Temperature

 
Air Temperature [°C]     6 entries per hour
Showing data from 1/13/2021 (00:00:00 Z) to 1/12/2021 (00:01:00 Z)
Previous Next [ Day | 3-Days | 7-Days ]
First Last
Prev [ Day | 3-Days | 7-Days ] Next
First Last

Start Time:     :
End Time:     :     
Time (in GMT) :00 :50 :40 :30 :20 :10
Previous Next [ Day | 3-Days | 7-Days ]
First Last
Prev [ Day | 3-Days | 7-Days ] Next
First Last


123 => good data
MM => data is determined as missing
-- => data not received/configured
Back to Top Back to Top
1/13/2021 00:00 to 23:10 23.26 23.34 23.35 23.39 23.40 23.43
1/12/2021 23:00 to 22:10 23.41 23.43 23.56 23.55 23.51 23.53
1/12/2021 22:00 to 21:10 23.62 23.56 23.71 23.59 23.60 23.64
1/12/2021 21:00 to 20:10 23.69 23.73 23.73 23.76 23.78 23.78
1/12/2021 20:00 to 19:10 23.76 23.76 23.87 23.87 23.90 23.95
1/12/2021 19:00 to 18:10 23.96 24.03 23.96 23.92 23.93 23.79
1/12/2021 18:00 to 17:10 23.78 23.83 23.84 23.81 23.83 24.00
1/12/2021 17:00 to 16:10 24.04 24.09 24.31 23.83 23.62 23.52
1/12/2021 16:00 to 15:10 23.50 23.35 23.34 23.33 23.34 23.27
1/12/2021 15:00 to 14:10 23.18 23.06 22.97 22.96 22.90 22.81
1/12/2021 14:00 to 13:10 22.86 22.87 22.86 22.84 22.82 22.84
1/12/2021 13:00 to 12:10 22.85 22.81 22.81 22.79 22.68 22.71
1/12/2021 12:00 to 11:10 22.67 22.67 22.64 22.64 22.61 22.65
1/12/2021 11:00 to 10:10 22.69 22.63 22.66 22.68 22.67 22.69
1/12/2021 10:00 to 9:10 22.70 22.71 22.72 22.76 22.74 22.74
1/12/2021 09:00 to 8:10 22.78 22.78 22.76 22.78 22.79 22.81
1/12/2021 08:00 to 7:10 22.80 22.83 22.79 22.78 22.76 22.78
1/12/2021 07:00 to 6:10 22.76 22.79 22.81 22.81 22.84 22.84
1/12/2021 06:00 to 5:10 22.84 22.88 22.92 22.94 22.95 22.96
1/12/2021 05:00 to 4:10 22.95 22.96 23.00 22.99 23.01 23.04
1/12/2021 04:00 to 3:10 23.09 23.11 23.09 23.08 23.06 23.07
1/12/2021 03:00 to 2:10 23.13 23.11 23.09 23.10 23.08 23.09
1/12/2021 02:00 to 1:10 23.13 23.10 23.07 23.12 23.11 23.11
1/12/2021 01:00 to 0:10 23.10 23.09 23.12 23.16 23.33 23.57